sensor_id;sensor_type;location;lat;lon;timestamp;P1;durP1;ratioP1;P2;durP2;ratioP2
17345;SDS011;8790;53.590;10.002;2022-08-01T00:01:07;12.70;;;11.50;;
17345;SDS011;8790;53.590;10.002;2022-08-01T00:03:39;12.63;;;11.00;;
17345;SDS011;8790;53.590;10.002;2022-08-01T00:06:11;13.43;;;12.15;;
17345;SDS011;8790;53.590;10.002;2022-08-01T00:08:42;13.38;;;12.10;;
17345;SDS011;8790;53.590;10.002;2022-08-01T00:11:15;12.95;;;11.73;;
17345;SDS011;8790;53.590;10.002;2022-08-01T00:13:47;12.82;;;11.52;;
17345;SDS011;8790;53.590;10.002;2022-08-01T00:16:19;12.60;;;11.30;;
17345;SDS011;8790;53.590;10.002;2022-08-01T00:18:52;11.38;;;10.32;;
17345;SDS011;8790;53.590;10.002;2022-08-01T00:21:24;12.50;;;11.30;;
17345;SDS011;8790;53.590;10.002;2022-08-01T00:23:56;13.63;;;10.93;;
17345;SDS011;8790;53.590;10.002;2022-08-01T00:26:29;12.07;;;10.88;;
17345;SDS011;8790;53.590;10.002;2022-08-01T00:29:01;12.18;;;10.93;;
17345;SDS011;8790;53.590;10.002;2022-08-01T00:31:32;12.00;;;10.60;;
17345;SDS011;8790;53.590;10.002;2022-08-01T00:34:04;12.52;;;10.98;;
17345;SDS011;8790;53.590;10.002;2022-08-01T00:36:36;12.45;;;11.18;;
17345;SDS011;8790;53.590;10.002;2022-08-01T00:39:07;12.23;;;10.77;;
17345;SDS011;8790;53.590;10.002;2022-08-01T00:41:40;13.00;;;11.35;;
17345;SDS011;8790;53.590;10.002;2022-08-01T00:44:12;12.50;;;10.82;;
17345;SDS011;8790;53.590;10.002;2022-08-01T00:46:44;13.55;;;11.23;;
17345;SDS011;8790;53.590;10.002;2022-08-01T00:49:16;12.18;;;10.98;;
17345;SDS011;8790;53.590;10.002;2022-08-01T00:51:47;12.95;;;10.85;;
17345;SDS011;8790;53.590;10.002;2022-08-01T00:54:19;11.32;;;10.23;;
17345;SDS011;8790;53.590;10.002;2022-08-01T00:56:52;12.40;;;10.50;;
17345;SDS011;8790;53.590;10.002;2022-08-01T00:59:25;11.00;;;9.90;;
17345;SDS011;8790;53.590;10.002;2022-08-01T01:01:57;11.05;;;9.95;;
17345;SDS011;8790;53.590;10.002;2022-08-01T01:04:29;10.55;;;9.45;;
17345;SDS011;8790;53.590;10.002;2022-08-01T01:07:18;11.35;;;9.15;;
17345;SDS011;8790;53.590;10.002;2022-08-01T01:09:54;11.05;;;9.25;;
17345;SDS011;8790;53.590;10.002;2022-08-01T01:12:34;9.77;;;8.63;;
17345;SDS011;8790;53.590;10.002;2022-08-01T01:15:13;9.27;;;8.35;;
17345;SDS011;8790;53.590;10.002;2022-08-01T01:17:48;10.90;;;8.88;;
17345;SDS011;8790;53.590;10.002;2022-08-01T01:20:27;10.23;;;9.13;;
17345;SDS011;8790;53.590;10.002;2022-08-01T01:23:12;9.50;;;8.60;;
17345;SDS011;8790;53.590;10.002;2022-08-01T01:26:01;9.63;;;8.63;;
17345;SDS011;8790;53.590;10.002;2022-08-01T01:29:02;10.48;;;9.07;;
17345;SDS011;8790;53.590;10.002;2022-08-01T01:31:40;11.68;;;9.65;;
17345;SDS011;8790;53.590;10.002;2022-08-01T01:34:15;10.18;;;9.15;;
17345;SDS011;8790;53.590;10.002;2022-08-01T01:36:50;10.40;;;9.40;;
17345;SDS011;8790;53.590;10.002;2022-08-01T01:39:25;10.15;;;8.80;;
17345;SDS011;8790;53.590;10.002;2022-08-01T01:42:00;11.07;;;9.88;;
17345;SDS011;8790;53.590;10.002;2022-08-01T01:44:36;11.73;;;10.05;;
17345;SDS011;8790;53.590;10.002;2022-08-01T01:47:09;11.88;;;9.57;;
17345;SDS011;8790;53.590;10.002;2022-08-01T01:49:43;10.38;;;9.27;;
17345;SDS011;8790;53.590;10.002;2022-08-01T01:52:17;11.93;;;10.23;;
17345;SDS011;8790;53.590;10.002;2022-08-01T01:54:50;11.80;;;9.73;;
17345;SDS011;8790;53.590;10.002;2022-08-01T01:57:24;11.02;;;9.38;;
17345;SDS011;8790;53.590;10.002;2022-08-01T02:00:00;11.32;;;10.13;;
17345;SDS011;8790;53.590;10.002;2022-08-01T02:02:35;10.95;;;9.40;;
17345;SDS011;8790;53.590;10.002;2022-08-01T02:05:08;10.55;;;9.45;;
17345;SDS011;8790;53.590;10.002;2022-08-01T02:07:42;12.13;;;10.55;;
17345;SDS011;8790;53.590;10.002;2022-08-01T02:10:15;11.20;;;10.00;;
17345;SDS011;8790;53.590;10.002;2022-08-01T02:12:49;13.10;;;10.65;;
17345;SDS011;8790;53.590;10.002;2022-08-01T02:15:23;11.52;;;9.15;;
17345;SDS011;8790;53.590;10.002;2022-08-01T02:17:55;12.57;;;10.30;;
17345;SDS011;8790;53.590;10.002;2022-08-01T02:20:28;10.38;;;8.82;;
17345;SDS011;8790;53.590;10.002;2022-08-01T02:23:03;10.07;;;8.70;;
17345;SDS011;8790;53.590;10.002;2022-08-01T02:25:39;9.40;;;8.48;;
17345;SDS011;8790;53.590;10.002;2022-08-01T02:28:19;11.00;;;9.10;;
17345;SDS011;8790;53.590;10.002;2022-08-01T02:31:02;9.23;;;8.27;;
17345;SDS011;8790;53.590;10.002;2022-08-01T02:33:36;10.43;;;8.25;;
17345;SDS011;8790;53.590;10.002;2022-08-01T02:36:10;9.00;;;7.63;;
17345;SDS011;8790;53.590;10.002;2022-08-01T02:38:44;8.57;;;7.63;;
17345;SDS011;8790;53.590;10.002;2022-08-01T02:41:19;8.73;;;7.82;;
17345;SDS011;8790;53.590;10.002;2022-08-01T02:43:53;8.63;;;7.82;;
17345;SDS011;8790;53.590;10.002;2022-08-01T02:46:31;8.60;;;7.53;;
17345;SDS011;8790;53.590;10.002;2022-08-01T02:49:06;8.85;;;7.97;;
17345;SDS011;8790;53.590;10.002;2022-08-01T02:51:40;8.57;;;7.72;;
17345;SDS011;8790;53.590;10.002;2022-08-01T02:54:12;9.88;;;7.78;;
17345;SDS011;8790;53.590;10.002;2022-08-01T02:56:47;9.45;;;7.40;;
17345;SDS011;8790;53.590;10.002;2022-08-01T02:59:21;9.68;;;7.82;;
17345;SDS011;8790;53.590;10.002;2022-08-01T03:01:57;8.10;;;7.35;;
17345;SDS011;8790;53.590;10.002;2022-08-01T03:04:30;9.65;;;7.32;;
17345;SDS011;8790;53.590;10.002;2022-08-01T03:07:05;7.63;;;6.85;;
17345;SDS011;8790;53.590;10.002;2022-08-01T03:09:40;8.00;;;7.20;;
17345;SDS011;8790;53.590;10.002;2022-08-01T03:12:17;9.15;;;6.80;;
17345;SDS011;8790;53.590;10.002;2022-08-01T03:14:51;7.53;;;6.55;;
17345;SDS011;8790;53.590;10.002;2022-08-01T03:17:28;8.18;;;6.55;;
17345;SDS011;8790;53.590;10.002;2022-08-01T03:20:01;6.95;;;6.25;;
17345;SDS011;8790;53.590;10.002;2022-08-01T03:22:35;7.68;;;6.60;;
17345;SDS011;8790;53.590;10.002;2022-08-01T03:25:09;9.27;;;6.80;;
17345;SDS011;8790;53.590;10.002;2022-08-01T03:27:43;8.45;;;6.10;;
17345;SDS011;8790;53.590;10.002;2022-08-01T03:30:16;7.78;;;6.90;;
17345;SDS011;8790;53.590;10.002;2022-08-01T03:32:49;7.88;;;6.68;;
17345;SDS011;8790;53.590;10.002;2022-08-01T03:35:22;6.70;;;6.10;;
17345;SDS011;8790;53.590;10.002;2022-08-01T03:37:58;8.43;;;6.28;;
17345;SDS011;8790;53.590;10.002;2022-08-01T03:40:33;6.70;;;5.90;;
17345;SDS011;8790;53.590;10.002;2022-08-01T03:43:10;6.57;;;5.38;;
17345;SDS011;8790;53.590;10.002;2022-08-01T03:45:49;6.65;;;5.93;;
17345;SDS011;8790;53.590;10.002;2022-08-01T03:48:27;6.90;;;5.97;;
17345;SDS011;8790;53.590;10.002;2022-08-01T03:51:04;8.13;;;5.78;;
17345;SDS011;8790;53.590;10.002;2022-08-01T03:53:37;7.40;;;5.82;;
17345;SDS011;8790;53.590;10.002;2022-08-01T03:56:12;7.05;;;6.03;;
17345;SDS011;8790;53.590;10.002;2022-08-01T03:58:47;7.20;;;5.80;;
17345;SDS011;8790;53.590;10.002;2022-08-01T04:01:20;7.03;;;6.25;;
17345;SDS011;8790;53.590;10.002;2022-08-01T04:03:53;6.07;;;5.47;;
17345;SDS011;8790;53.590;10.002;2022-08-01T04:06:26;7.95;;;6.07;;
17345;SDS011;8790;53.590;10.002;2022-08-01T04:08:57;6.68;;;5.97;;
17345;SDS011;8790;53.590;10.002;2022-08-01T04:11:29;6.97;;;5.55;;
17345;SDS011;8790;53.590;10.002;2022-08-01T04:14:02;6.22;;;5.50;;
17345;SDS011;8790;53.590;10.002;2022-08-01T04:16:34;6.28;;;5.47;;
17345;SDS011;8790;53.590;10.002;2022-08-01T04:19:07;7.72;;;5.45;;
17345;SDS011;8790;53.590;10.002;2022-08-01T04:21:39;7.10;;;5.38;;
17345;SDS011;8790;53.590;10.002;2022-08-01T04:24:12;6.63;;;5.28;;
17345;SDS011;8790;53.590;10.002;2022-08-01T04:26:47;8.25;;;6.13;;
17345;SDS011;8790;53.590;10.002;2022-08-01T04:29:21;7.85;;;5.70;;
17345;SDS011;8790;53.590;10.002;2022-08-01T04:31:57;6.18;;;5.57;;
17345;SDS011;8790;53.590;10.002;2022-08-01T04:34:31;6.63;;;5.55;;
17345;SDS011;8790;53.590;10.002;2022-08-01T04:37:05;7.00;;;5.78;;
17345;SDS011;8790;53.590;10.002;2022-08-01T04:39:40;6.30;;;5.38;;
17345;SDS011;8790;53.590;10.002;2022-08-01T04:42:13;6.47;;;5.80;;
17345;SDS011;8790;53.590;10.002;2022-08-01T04:44:46;5.43;;;4.50;;
17345;SDS011;8790;53.590;10.002;2022-08-01T04:47:18;5.57;;;4.60;;
17345;SDS011;8790;53.590;10.002;2022-08-01T04:49:52;4.63;;;4.22;;
17345;SDS011;8790;53.590;10.002;2022-08-01T04:52:32;4.65;;;4.13;;
17345;SDS011;8790;53.590;10.002;2022-08-01T04:55:05;4.82;;;3.83;;
17345;SDS011;8790;53.590;10.002;2022-08-01T04:57:39;4.85;;;3.60;;
17345;SDS011;8790;53.590;10.002;2022-08-01T05:00:14;3.92;;;3.50;;
17345;SDS011;8790;53.590;10.002;2022-08-01T05:02:47;4.45;;;3.30;;
17345;SDS011;8790;53.590;10.002;2022-08-01T05:05:20;5.07;;;3.60;;
17345;SDS011;8790;53.590;10.002;2022-08-01T05:07:52;4.10;;;3.38;;
17345;SDS011;8790;53.590;10.002;2022-08-01T05:10:24;4.32;;;3.20;;
17345;SDS011;8790;53.590;10.002;2022-08-01T05:12:56;5.00;;;3.28;;
17345;SDS011;8790;53.590;10.002;2022-08-01T05:15:27;5.35;;;2.80;;
17345;SDS011;8790;53.590;10.002;2022-08-01T05:17:59;2.55;;;2.13;;
17345;SDS011;8790;53.590;10.002;2022-08-01T05:20:32;3.25;;;2.60;;
17345;SDS011;8790;53.590;10.002;2022-08-01T05:23:04;4.45;;;2.10;;
17345;SDS011;8790;53.590;10.002;2022-08-01T05:25:36;2.97;;;1.92;;
17345;SDS011;8790;53.590;10.002;2022-08-01T05:28:08;2.15;;;1.80;;
17345;SDS011;8790;53.590;10.002;2022-08-01T05:30:40;3.50;;;2.03;;
17345;SDS011;8790;53.590;10.002;2022-08-01T05:33:12;2.55;;;2.25;;
17345;SDS011;8790;53.590;10.002;2022-08-01T05:35:45;2.45;;;2.10;;
17345;SDS011;8790;53.590;10.002;2022-08-01T05:38:17;2.80;;;2.08;;
17345;SDS011;8790;53.590;10.002;2022-08-01T05:40:48;2.85;;;2.00;;
17345;SDS011;8790;53.590;10.002;2022-08-01T05:43:20;4.30;;;2.20;;
17345;SDS011;8790;53.590;10.002;2022-08-01T05:45:52;3.50;;;2.55;;
17345;SDS011;8790;53.590;10.002;2022-08-01T05:48:24;3.25;;;2.50;;
17345;SDS011;8790;53.590;10.002;2022-08-01T05:50:57;2.95;;;2.58;;
17345;SDS011;8790;53.590;10.002;2022-08-01T05:53:29;2.97;;;2.75;;
17345;SDS011;8790;53.590;10.002;2022-08-01T05:56:04;3.63;;;3.10;;
17345;SDS011;8790;53.590;10.002;2022-08-01T05:58:36;3.55;;;3.20;;
17345;SDS011;8790;53.590;10.002;2022-08-01T06:01:07;3.50;;;3.03;;
17345;SDS011;8790;53.590;10.002;2022-08-01T06:03:39;4.03;;;3.30;;
17345;SDS011;8790;53.590;10.002;2022-08-01T06:06:12;4.53;;;3.80;;
17345;SDS011;8790;53.590;10.002;2022-08-01T06:08:45;5.53;;;3.45;;
17345;SDS011;8790;53.590;10.002;2022-08-01T06:11:16;4.72;;;3.30;;
17345;SDS011;8790;53.590;10.002;2022-08-01T06:13:48;5.33;;;3.60;;
17345;SDS011;8790;53.590;10.002;2022-08-01T06:16:20;5.43;;;3.40;;
17345;SDS011;8790;53.590;10.002;2022-08-01T06:18:51;5.57;;;3.83;;
17345;SDS011;8790;53.590;10.002;2022-08-01T06:21:24;4.25;;;3.30;;
17345;SDS011;8790;53.590;10.002;2022-08-01T06:23:56;7.82;;;4.15;;
17345;SDS011;8790;53.590;10.002;2022-08-01T06:26:28;7.30;;;3.90;;
17345;SDS011;8790;53.590;10.002;2022-08-01T06:29:01;6.28;;;3.70;;
17345;SDS011;8790;53.590;10.002;2022-08-01T06:31:32;5.50;;;3.50;;
17345;SDS011;8790;53.590;10.002;2022-08-01T06:34:04;8.25;;;4.22;;
17345;SDS011;8790;53.590;10.002;2022-08-01T06:36:37;6.95;;;4.57;;
17345;SDS011;8790;53.590;10.002;2022-08-01T06:39:09;7.95;;;4.82;;
17345;SDS011;8790;53.590;10.002;2022-08-01T06:41:41;6.73;;;5.37;;
17345;SDS011;8790;53.590;10.002;2022-08-01T06:44:16;7.72;;;6.07;;
17345;SDS011;8790;53.590;10.002;2022-08-01T06:46:47;8.33;;;6.67;;
17345;SDS011;8790;53.590;10.002;2022-08-01T06:49:19;12.98;;;7.40;;
17345;SDS011;8790;53.590;10.002;2022-08-01T06:51:52;10.70;;;7.25;;
17345;SDS011;8790;53.590;10.002;2022-08-01T06:54:24;10.02;;;7.35;;
17345;SDS011;8790;53.590;10.002;2022-08-01T06:56:55;9.23;;;7.20;;
17345;SDS011;8790;53.590;10.002;2022-08-01T06:59:27;11.27;;;7.75;;
17345;SDS011;8790;53.590;10.002;2022-08-01T07:01:59;13.40;;;7.97;;
17345;SDS011;8790;53.590;10.002;2022-08-01T07:04:32;9.80;;;7.80;;
17345;SDS011;8790;53.590;10.002;2022-08-01T07:07:05;11.10;;;7.90;;
17345;SDS011;8790;53.590;10.002;2022-08-01T07:09:36;11.63;;;7.90;;
17345;SDS011;8790;53.590;10.002;2022-08-01T07:12:10;11.00;;;7.47;;
17345;SDS011;8790;53.590;10.002;2022-08-01T07:14:42;10.05;;;7.65;;
17345;SDS011;8790;53.590;10.002;2022-08-01T07:17:14;11.05;;;7.78;;
17345;SDS011;8790;53.590;10.002;2022-08-01T07:19:46;11.05;;;7.40;;
17345;SDS011;8790;53.590;10.002;2022-08-01T07:22:19;10.93;;;7.45;;
17345;SDS011;8790;53.590;10.002;2022-08-01T07:24:51;11.13;;;7.70;;
17345;SDS011;8790;53.590;10.002;2022-08-01T07:27:22;11.85;;;7.50;;
17345;SDS011;8790;53.590;10.002;2022-08-01T07:29:54;13.77;;;7.90;;
17345;SDS011;8790;53.590;10.002;2022-08-01T07:32:26;12.98;;;8.50;;
17345;SDS011;8790;53.590;10.002;2022-08-01T07:34:59;12.52;;;9.10;;
17345;SDS011;8790;53.590;10.002;2022-08-01T07:37:32;12.68;;;8.55;;
17345;SDS011;8790;53.590;10.002;2022-08-01T07:40:04;14.40;;;8.77;;
17345;SDS011;8790;53.590;10.002;2022-08-01T07:42:36;11.65;;;8.70;;
17345;SDS011;8790;53.590;10.002;2022-08-01T07:45:08;13.35;;;8.15;;
17345;SDS011;8790;53.590;10.002;2022-08-01T07:47:41;13.95;;;7.07;;
17345;SDS011;8790;53.590;10.002;2022-08-01T07:50:13;13.37;;;7.13;;
17345;SDS011;8790;53.590;10.002;2022-08-01T07:52:46;10.40;;;6.50;;
17345;SDS011;8790;53.590;10.002;2022-08-01T07:55:17;14.27;;;6.17;;
17345;SDS011;8790;53.590;10.002;2022-08-01T07:57:49;10.37;;;5.20;;
17345;SDS011;8790;53.590;10.002;2022-08-01T08:00:21;14.27;;;5.33;;
17345;SDS011;8790;53.590;10.002;2022-08-01T08:02:53;10.88;;;5.00;;
17345;SDS011;8790;53.590;10.002;2022-08-01T08:05:28;10.77;;;4.90;;
17345;SDS011;8790;53.590;10.002;2022-08-01T08:08:02;8.73;;;4.10;;
17345;SDS011;8790;53.590;10.002;2022-08-01T08:10:35;6.80;;;2.90;;
17345;SDS011;8790;53.590;10.002;2022-08-01T08:13:07;9.35;;;2.70;;
17345;SDS011;8790;53.590;10.002;2022-08-01T08:15:39;7.78;;;2.78;;
17345;SDS011;8790;53.590;10.002;2022-08-01T08:18:10;8.02;;;3.00;;
17345;SDS011;8790;53.590;10.002;2022-08-01T08:20:42;9.07;;;3.03;;
17345;SDS011;8790;53.590;10.002;2022-08-01T08:23:16;8.77;;;2.47;;
17345;SDS011;8790;53.590;10.002;2022-08-01T08:26:05;9.65;;;3.10;;
17345;SDS011;8790;53.590;10.002;2022-08-01T08:28:37;8.40;;;3.17;;
17345;SDS011;8790;53.590;10.002;2022-08-01T08:31:09;7.72;;;3.00;;
17345;SDS011;8790;53.590;10.002;2022-08-01T08:33:41;7.03;;;3.08;;
17345;SDS011;8790;53.590;10.002;2022-08-01T08:36:13;6.80;;;3.00;;
17345;SDS011;8790;53.590;10.002;2022-08-01T08:38:46;7.85;;;3.20;;
17345;SDS011;8790;53.590;10.002;2022-08-01T08:41:18;9.87;;;3.20;;
17345;SDS011;8790;53.590;10.002;2022-08-01T08:43:49;7.70;;;3.40;;
17345;SDS011;8790;53.590;10.002;2022-08-01T08:46:21;6.70;;;3.03;;
17345;SDS011;8790;53.590;10.002;2022-08-01T08:48:55;6.65;;;2.70;;
17345;SDS011;8790;53.590;10.002;2022-08-01T08:51:27;6.38;;;2.50;;
17345;SDS011;8790;53.590;10.002;2022-08-01T08:54:06;3.58;;;2.40;;
17345;SDS011;8790;53.590;10.002;2022-08-01T08:56:38;7.88;;;2.90;;
17345;SDS011;8790;53.590;10.002;2022-08-01T08:59:11;8.35;;;2.67;;
17345;SDS011;8790;53.590;10.002;2022-08-01T09:01:44;8.53;;;2.63;;
17345;SDS011;8790;53.590;10.002;2022-08-01T09:04:16;7.22;;;2.85;;
17345;SDS011;8790;53.590;10.002;2022-08-01T09:06:48;8.18;;;2.80;;
17345;SDS011;8790;53.590;10.002;2022-08-01T09:09:21;7.55;;;2.92;;
17345;SDS011;8790;53.590;10.002;2022-08-01T09:11:54;9.20;;;2.95;;
17345;SDS011;8790;53.590;10.002;2022-08-01T09:14:26;6.47;;;2.38;;
17345;SDS011;8790;53.590;10.002;2022-08-01T09:17:02;6.68;;;2.60;;
17345;SDS011;8790;53.590;10.002;2022-08-01T09:19:37;6.63;;;2.33;;
17345;SDS011;8790;53.590;10.002;2022-08-01T09:22:10;6.67;;;2.73;;
17345;SDS011;8790;53.590;10.002;2022-08-01T09:24:57;8.83;;;2.80;;
17345;SDS011;8790;53.590;10.002;2022-08-01T09:27:31;4.88;;;2.35;;
17345;SDS011;8790;53.590;10.002;2022-08-01T09:30:07;5.27;;;2.23;;
17345;SDS011;8790;53.590;10.002;2022-08-01T09:32:55;4.97;;;2.47;;
17345;SDS011;8790;53.590;10.002;2022-08-01T09:35:31;6.00;;;2.07;;
17345;SDS011;8790;53.590;10.002;2022-08-01T09:38:11;8.05;;;2.50;;
17345;SDS011;8790;53.590;10.002;2022-08-01T09:40:46;6.05;;;2.33;;
17345;SDS011;8790;53.590;10.002;2022-08-01T09:43:20;7.05;;;2.42;;
17345;SDS011;8790;53.590;10.002;2022-08-01T09:45:53;6.20;;;2.28;;
17345;SDS011;8790;53.590;10.002;2022-08-01T09:48:26;7.82;;;2.30;;
17345;SDS011;8790;53.590;10.002;2022-08-01T09:50:58;9.38;;;2.53;;
17345;SDS011;8790;53.590;10.002;2022-08-01T09:53:39;11.45;;;3.65;;
17345;SDS011;8790;53.590;10.002;2022-08-01T09:56:13;5.63;;;2.38;;
17345;SDS011;8790;53.590;10.002;2022-08-01T09:58:51;9.38;;;3.00;;
17345;SDS011;8790;53.590;10.002;2022-08-01T10:01:24;8.20;;;2.58;;
17345;SDS011;8790;53.590;10.002;2022-08-01T10:04:07;8.50;;;2.80;;
17345;SDS011;8790;53.590;10.002;2022-08-01T10:06:41;7.05;;;3.05;;
17345;SDS011;8790;53.590;10.002;2022-08-01T10:09:14;7.88;;;3.15;;
17345;SDS011;8790;53.590;10.002;2022-08-01T10:11:47;7.50;;;3.25;;
17345;SDS011;8790;53.590;10.002;2022-08-01T10:14:19;8.98;;;3.70;;
17345;SDS011;8790;53.590;10.002;2022-08-01T10:16:51;7.72;;;4.20;;
17345;SDS011;8790;53.590;10.002;2022-08-01T10:19:24;8.60;;;4.10;;
17345;SDS011;8790;53.590;10.002;2022-08-01T10:21:57;9.27;;;3.17;;
17345;SDS011;8790;53.590;10.002;2022-08-01T10:24:30;9.10;;;3.40;;
17345;SDS011;8790;53.590;10.002;2022-08-01T10:27:04;8.40;;;3.10;;
17345;SDS011;8790;53.590;10.002;2022-08-01T10:29:41;6.97;;;4.10;;
17345;SDS011;8790;53.590;10.002;2022-08-01T10:32:14;6.68;;;3.80;;
17345;SDS011;8790;53.590;10.002;2022-08-01T10:34:47;7.20;;;3.35;;
17345;SDS011;8790;53.590;10.002;2022-08-01T10:37:20;10.73;;;4.00;;
17345;SDS011;8790;53.590;10.002;2022-08-01T10:39:53;7.03;;;3.50;;
17345;SDS011;8790;53.590;10.002;2022-08-01T10:42:26;6.85;;;3.20;;
17345;SDS011;8790;53.590;10.002;2022-08-01T10:44:58;8.52;;;2.72;;
17345;SDS011;8790;53.590;10.002;2022-08-01T10:47:32;5.25;;;2.38;;
17345;SDS011;8790;53.590;10.002;2022-08-01T10:50:11;7.10;;;2.55;;
17345;SDS011;8790;53.590;10.002;2022-08-01T10:53:06;6.65;;;2.75;;
17345;SDS011;8790;53.590;10.002;2022-08-01T10:55:46;7.43;;;2.17;;
17345;SDS011;8790;53.590;10.002;2022-08-01T10:58:21;3.65;;;2.00;;
17345;SDS011;8790;53.590;10.002;2022-08-01T11:03:57;7.05;;;2.38;;
17345;SDS011;8790;53.590;10.002;2022-08-01T11:06:41;6.43;;;2.15;;
17345;SDS011;8790;53.590;10.002;2022-08-01T11:09:21;7.22;;;2.20;;
17345;SDS011;8790;53.590;10.002;2022-08-01T11:12:00;8.30;;;2.05;;
17345;SDS011;8790;53.590;10.002;2022-08-01T11:17:41;6.15;;;1.83;;
17345;SDS011;8790;53.590;10.002;2022-08-01T11:20:18;6.13;;;1.88;;
17345;SDS011;8790;53.590;10.002;2022-08-01T11:29:11;5.93;;;1.80;;
17345;SDS011;8790;53.590;10.002;2022-08-01T11:31:52;4.72;;;1.60;;
17345;SDS011;8790;53.590;10.002;2022-08-01T11:37:27;7.57;;;2.17;;
17345;SDS011;8790;53.590;10.002;2022-08-01T11:40:15;6.03;;;2.15;;
17345;SDS011;8790;53.590;10.002;2022-08-01T11:45:49;4.05;;;1.73;;
17345;SDS011;8790;53.590;10.002;2022-08-01T11:48:22;5.30;;;1.63;;
17345;SDS011;8790;53.590;10.002;2022-08-01T11:50:57;3.75;;;1.60;;
17345;SDS011;8790;53.590;10.002;2022-08-01T11:53:29;4.18;;;1.73;;
17345;SDS011;8790;53.590;10.002;2022-08-01T11:56:03;4.95;;;1.90;;
17345;SDS011;8790;53.590;10.002;2022-08-01T11:58:35;4.90;;;1.80;;
17345;SDS011;8790;53.590;10.002;2022-08-01T12:01:07;7.43;;;2.17;;
17345;SDS011;8790;53.590;10.002;2022-08-01T12:03:44;5.35;;;1.90;;
17345;SDS011;8790;53.590;10.002;2022-08-01T12:06:27;8.07;;;2.42;;
17345;SDS011;8790;53.590;10.002;2022-08-01T12:11:46;6.70;;;1.90;;
17345;SDS011;8790;53.590;10.002;2022-08-01T12:14:18;4.90;;;1.70;;
17345;SDS011;8790;53.590;10.002;2022-08-01T12:16:52;5.57;;;1.52;;
17345;SDS011;8790;53.590;10.002;2022-08-01T12:19:24;5.57;;;1.50;;
17345;SDS011;8790;53.590;10.002;2022-08-01T12:22:11;4.53;;;1.30;;
17345;SDS011;8790;53.590;10.002;2022-08-01T12:24:43;3.53;;;1.40;;
17345;SDS011;8790;53.590;10.002;2022-08-01T12:27:23;3.90;;;1.30;;
17345;SDS011;8790;53.590;10.002;2022-08-01T12:29:56;5.53;;;1.63;;
17345;SDS011;8790;53.590;10.002;2022-08-01T12:32:29;5.07;;;1.45;;
17345;SDS011;8790;53.590;10.002;2022-08-01T12:35:03;5.30;;;1.40;;
17345;SDS011;8790;53.590;10.002;2022-08-01T12:37:38;6.25;;;1.60;;
17345;SDS011;8790;53.590;10.002;2022-08-01T12:40:13;5.70;;;1.45;;
17345;SDS011;8790;53.590;10.002;2022-08-01T12:42:46;7.03;;;1.83;;
17345;SDS011;8790;53.590;10.002;2022-08-01T12:45:19;6.97;;;1.65;;
17345;SDS011;8790;53.590;10.002;2022-08-01T12:47:55;5.93;;;1.40;;
17345;SDS011;8790;53.590;10.002;2022-08-01T12:50:29;4.47;;;1.70;;
17345;SDS011;8790;53.590;10.002;2022-08-01T12:53:04;5.80;;;1.80;;
17345;SDS011;8790;53.590;10.002;2022-08-01T12:55:43;4.85;;;1.75;;
17345;SDS011;8790;53.590;10.002;2022-08-01T12:58:16;8.55;;;1.77;;
17345;SDS011;8790;53.590;10.002;2022-08-01T13:00:49;6.20;;;1.55;;
17345;SDS011;8790;53.590;10.002;2022-08-01T13:03:32;5.93;;;1.85;;
17345;SDS011;8790;53.590;10.002;2022-08-01T13:06:09;5.47;;;1.55;;
17345;SDS011;8790;53.590;10.002;2022-08-01T13:08:45;4.25;;;1.33;;
17345;SDS011;8790;53.590;10.002;2022-08-01T13:11:17;6.18;;;1.75;;
17345;SDS011;8790;53.590;10.002;2022-08-01T13:13:50;5.22;;;1.40;;
17345;SDS011;8790;53.590;10.002;2022-08-01T13:16:23;5.35;;;1.33;;
17345;SDS011;8790;53.590;10.002;2022-08-01T13:18:56;5.32;;;1.63;;
17345;SDS011;8790;53.590;10.002;2022-08-01T13:21:28;5.75;;;1.35;;
17345;SDS011;8790;53.590;10.002;2022-08-01T13:24:04;5.50;;;1.60;;
17345;SDS011;8790;53.590;10.002;2022-08-01T13:26:37;5.35;;;1.50;;
17345;SDS011;8790;53.590;10.002;2022-08-01T13:29:11;4.20;;;1.48;;
17345;SDS011;8790;53.590;10.002;2022-08-01T13:31:45;4.10;;;1.52;;
17345;SDS011;8790;53.590;10.002;2022-08-01T13:34:17;4.95;;;1.45;;
17345;SDS011;8790;53.590;10.002;2022-08-01T13:36:48;4.40;;;1.35;;
17345;SDS011;8790;53.590;10.002;2022-08-01T13:39:21;5.32;;;1.80;;
17345;SDS011;8790;53.590;10.002;2022-08-01T13:42:14;6.13;;;1.52;;
17345;SDS011;8790;53.590;10.002;2022-08-01T13:44:46;7.53;;;1.70;;
17345;SDS011;8790;53.590;10.002;2022-08-01T13:47:18;5.07;;;1.70;;
17345;SDS011;8790;53.590;10.002;2022-08-01T13:49:50;4.10;;;1.63;;
17345;SDS011;8790;53.590;10.002;2022-08-01T13:52:21;3.83;;;1.30;;
17345;SDS011;8790;53.590;10.002;2022-08-01T13:54:54;4.88;;;1.42;;
17345;SDS011;8790;53.590;10.002;2022-08-01T13:57:26;5.20;;;1.48;;
17345;SDS011;8790;53.590;10.002;2022-08-01T13:59:58;5.10;;;1.52;;
17345;SDS011;8790;53.590;10.002;2022-08-01T14:02:30;4.35;;;1.50;;
17345;SDS011;8790;53.590;10.002;2022-08-01T14:05:02;3.53;;;1.50;;
17345;SDS011;8790;53.590;10.002;2022-08-01T14:07:34;5.65;;;1.48;;
17345;SDS011;8790;53.590;10.002;2022-08-01T14:10:07;5.22;;;1.63;;
17345;SDS011;8790;53.590;10.002;2022-08-01T14:12:39;4.72;;;1.52;;
17345;SDS011;8790;53.590;10.002;2022-08-01T14:15:11;5.05;;;1.40;;
17345;SDS011;8790;53.590;10.002;2022-08-01T14:17:43;6.72;;;1.73;;
17345;SDS011;8790;53.590;10.002;2022-08-01T14:20:15;3.90;;;1.48;;
17345;SDS011;8790;53.590;10.002;2022-08-01T14:22:49;4.07;;;1.60;;
17345;SDS011;8790;53.590;10.002;2022-08-01T14:25:22;4.93;;;1.83;;
17345;SDS011;8790;53.590;10.002;2022-08-01T14:27:54;2.45;;;1.42;;
17345;SDS011;8790;53.590;10.002;2022-08-01T14:30:26;2.75;;;1.20;;
17345;SDS011;8790;53.590;10.002;2022-08-01T14:32:58;6.18;;;1.48;;
17345;SDS011;8790;53.590;10.002;2022-08-01T14:35:29;4.50;;;1.33;;
17345;SDS011;8790;53.590;10.002;2022-08-01T14:38:01;4.43;;;1.40;;
17345;SDS011;8790;53.590;10.002;2022-08-01T14:40:34;3.92;;;1.27;;
17345;SDS011;8790;53.590;10.002;2022-08-01T14:43:06;4.55;;;1.65;;
17345;SDS011;8790;53.590;10.002;2022-08-01T14:45:38;4.18;;;1.38;;
17345;SDS011;8790;53.590;10.002;2022-08-01T14:48:10;5.60;;;1.65;;
17345;SDS011;8790;53.590;10.002;2022-08-01T14:50:42;6.70;;;1.77;;
17345;SDS011;8790;53.590;10.002;2022-08-01T14:53:13;6.00;;;1.55;;
17345;SDS011;8790;53.590;10.002;2022-08-01T14:55:46;5.35;;;1.52;;
17345;SDS011;8790;53.590;10.002;2022-08-01T14:58:18;4.38;;;1.60;;
17345;SDS011;8790;53.590;10.002;2022-08-01T15:00:50;3.30;;;1.50;;
17345;SDS011;8790;53.590;10.002;2022-08-01T15:03:24;3.75;;;1.58;;
17345;SDS011;8790;53.590;10.002;2022-08-01T15:05:55;6.30;;;1.80;;
17345;SDS011;8790;53.590;10.002;2022-08-01T15:08:28;4.80;;;1.60;;
17345;SDS011;8790;53.590;10.002;2022-08-01T15:11:01;5.93;;;1.88;;
17345;SDS011;8790;53.590;10.002;2022-08-01T15:13:33;6.20;;;1.90;;
17345;SDS011;8790;53.590;10.002;2022-08-01T15:16:04;5.15;;;1.77;;
17345;SDS011;8790;53.590;10.002;2022-08-01T15:18:36;5.72;;;1.90;;
17345;SDS011;8790;53.590;10.002;2022-08-01T15:21:08;4.15;;;1.40;;
17345;SDS011;8790;53.590;10.002;2022-08-01T15:23:39;4.55;;;1.60;;
17345;SDS011;8790;53.590;10.002;2022-08-01T15:26:13;4.78;;;1.67;;
17345;SDS011;8790;53.590;10.002;2022-08-01T15:28:44;7.43;;;4.00;;
17345;SDS011;8790;53.590;10.002;2022-08-01T15:31:16;5.80;;;1.80;;
17345;SDS011;8790;53.590;10.002;2022-08-01T15:33:48;6.00;;;1.95;;
17345;SDS011;8790;53.590;10.002;2022-08-01T15:36:20;5.57;;;1.50;;
17345;SDS011;8790;53.590;10.002;2022-08-01T15:38:51;3.78;;;1.70;;
17345;SDS011;8790;53.590;10.002;2022-08-01T15:41:25;6.28;;;1.88;;
17345;SDS011;8790;53.590;10.002;2022-08-01T15:43:56;7.05;;;2.10;;